Miami, Florida
Current Conditions -  °F | °C
As of 7:53 AM on Tuesday 21 Oct 2014 (Local Time) from KMIA Reporting Station
Overcast Overcast  
Wind Chill: 76°   Ceiling: 18000
Heat Index: 76°   Visibility: 10mi
Dew Point: 72°   Wind: 6mph
Humidity: 87%   Direction: 130°SE
Pressure: 29.94"   Gusts: NA
Location:  25.77°N, 80.19°W
Report Text: KMIA 211153Z 13005KT 10SM FEW027 SCT050 BKN180 OVC250 24/22 A2994 RMK AO2 SLP139 60000 70004 T02440222 10250 20239 51009
Loading
Personal Weather Stations






























Interactive Weather Map New forecast layout! Learn more

10-Day Weather Forecast

Advertisements
Track Severe Weather on mobile